createdAt,value
2023-02-02T00:00:04.866Z,54.46
2023-02-02T00:02:55.744Z,54.42
2023-02-02T00:05:24.734Z,54.69
2023-02-02T00:07:54.989Z,54.59
2023-02-02T00:10:24.279Z,54.42
2023-02-02T00:12:52.117Z,54.68
2023-02-02T00:15:20.684Z,53.25
2023-02-02T00:17:48.558Z,53.41
2023-02-02T00:20:17.115Z,54.08
2023-02-02T00:22:45.006Z,53.32
2023-02-02T00:25:13.800Z,54.01
2023-02-02T00:27:41.745Z,54.49
2023-02-02T00:30:10.891Z,54.86
2023-02-02T00:32:41.042Z,54.39
2023-02-02T00:35:09.855Z,54.92
2023-02-02T00:37:37.635Z,54.85
2023-02-02T00:40:06.576Z,54.44
2023-02-02T00:42:34.580Z,54.79
2023-02-02T00:45:19.370Z,54.95
2023-02-02T00:47:49.626Z,54.87
2023-02-02T00:50:21.311Z,54.68
2023-02-02T00:52:49.669Z,55.32
2023-02-02T00:55:18.380Z,55.61
2023-02-02T00:57:47.321Z,55.75
2023-02-02T01:00:18.692Z,55.43
2023-02-02T01:02:47.462Z,55.25
2023-02-02T01:05:15.752Z,55.63
2023-02-02T01:07:44.404Z,55.69
2023-02-02T01:10:18.273Z,55.15
2023-02-02T01:12:47.367Z,55.13
2023-02-02T01:15:16.361Z,54.41
2023-02-02T01:17:44.320Z,55.16
2023-02-02T01:20:20.700Z,54.90
2023-02-02T01:22:48.777Z,54.31
2023-02-02T01:25:17.241Z,54.79
2023-02-02T01:27:45.120Z,54.72
2023-02-02T01:30:13.599Z,55.24
2023-02-02T01:32:41.838Z,55.64
2023-02-02T01:35:11.197Z,56.12
2023-02-02T01:37:41.146Z,56.44
2023-02-02T01:40:11.093Z,56.38
2023-02-02T01:42:38.934Z,56.43
2023-02-02T01:45:33.646Z,56.44
2023-02-02T01:48:01.610Z,56.62
2023-02-02T01:50:33.734Z,56.76
2023-02-02T01:53:05.537Z,56.17
2023-02-02T01:55:36.316Z,56.09
2023-02-02T01:58:12.233Z,56.39
2023-02-02T02:00:44.184Z,56.14
2023-02-02T02:03:17.283Z,56.56
2023-02-02T02:05:54.319Z,55.68
2023-02-02T02:08:37.446Z,55.30
2023-02-02T02:11:06.969Z,56.28
2023-02-02T02:13:56.888Z,56.86
2023-02-02T02:17:03.478Z,56.68
2023-02-02T02:20:20.497Z,56.00
2023-02-02T02:23:39.928Z,55.78
2023-02-02T02:26:44.081Z,55.12
2023-02-02T02:29:40.059Z,54.42
2023-02-02T02:32:29.769Z,54.55
2023-02-02T02:35:04.967Z,54.77
2023-02-02T02:37:58.734Z,55.70
2023-02-02T02:40:36.149Z,55.70
2023-02-02T02:43:15.855Z,55.90
2023-02-02T02:45:45.132Z,56.74
2023-02-02T02:48:15.821Z,56.28
2023-02-02T02:50:44.124Z,56.49
2023-02-02T02:53:20.917Z,57.34
2023-02-02T02:55:49.817Z,56.99
2023-02-02T02:58:28.451Z,56.78
2023-02-02T03:01:35.210Z,57.23
2023-02-02T03:04:11.674Z,56.91
2023-02-02T03:07:19.050Z,56.90
2023-02-02T03:09:49.509Z,56.23
2023-02-02T03:12:18.567Z,56.11
2023-02-02T03:14:46.559Z,55.67
2023-02-02T03:17:14.866Z,55.83
2023-02-02T03:19:42.668Z,55.10
2023-02-02T03:22:11.381Z,56.67
2023-02-02T03:24:59.807Z,56.40
2023-02-02T03:27:28.565Z,56.90
2023-02-02T03:29:56.351Z,57.00
2023-02-02T03:32:25.384Z,56.69
2023-02-02T03:34:53.955Z,56.66
2023-02-02T03:37:22.429Z,56.35
2023-02-02T03:39:50.329Z,55.66
2023-02-02T03:42:19.614Z,55.97
2023-02-02T03:44:47.455Z,55.97
2023-02-02T03:47:16.126Z,56.45
2023-02-02T03:49:43.918Z,56.34
2023-02-02T03:52:12.182Z,56.74
2023-02-02T03:54:40.216Z,56.84
2023-02-02T03:57:08.923Z,56.52
2023-02-02T03:59:38.398Z,57.20
2023-02-02T04:02:08.839Z,57.59
2023-02-02T04:04:36.992Z,57.89
2023-02-02T04:07:05.589Z,57.47
2023-02-02T04:09:35.238Z,57.15
2023-02-02T04:12:03.551Z,57.13
2023-02-02T04:14:32.676Z,57.22
2023-02-02T04:17:01.067Z,57.53
2023-02-02T04:19:28.945Z,57.24
2023-02-02T04:21:57.227Z,57.27
2023-02-02T04:24:25.288Z,57.05
2023-02-02T04:26:53.597Z,57.06
2023-02-02T04:29:21.659Z,57.56
2023-02-02T04:31:49.913Z,57.43
2023-02-02T04:34:18.152Z,57.50
2023-02-02T04:36:46.405Z,57.54
2023-02-02T04:39:14.793Z,57.55
2023-02-02T04:41:43.048Z,57.62
2023-02-02T04:44:16.333Z,58.33
2023-02-02T04:46:45.327Z,57.63
2023-02-02T04:49:13.305Z,57.95
2023-02-02T04:51:42.165Z,57.89
2023-02-02T04:54:10.376Z,57.76
2023-02-02T04:56:38.647Z,57.92
2023-02-02T04:59:06.476Z,57.83
2023-02-02T05:01:34.779Z,57.81
2023-02-02T05:04:02.956Z,58.05
2023-02-02T05:06:31.482Z,57.88
2023-02-02T05:09:00.208Z,57.68
2023-02-02T05:11:28.633Z,57.60
2023-02-02T05:13:57.101Z,56.52
2023-02-02T05:16:29.131Z,56.33
2023-02-02T05:18:59.722Z,56.75
2023-02-02T05:21:28.330Z,56.63
2023-02-02T05:23:56.145Z,57.05
2023-02-02T05:26:27.098Z,56.81
2023-02-02T05:28:56.515Z,57.46
2023-02-02T05:31:25.017Z,57.29
2023-02-02T05:33:52.925Z,56.99
2023-02-02T05:36:21.348Z,56.11
2023-02-02T05:38:50.233Z,56.64
2023-02-02T05:41:19.154Z,57.85
2023-02-02T05:43:47.301Z,58.43
2023-02-02T05:46:15.850Z,57.96
2023-02-02T05:48:43.849Z,57.29
2023-02-02T05:51:19.259Z,58.20
2023-02-02T05:53:47.396Z,57.92
2023-02-02T05:56:16.461Z,57.35
2023-02-02T05:58:47.570Z,57.02
2023-02-02T06:01:18.615Z,57.26
2023-02-02T06:03:46.656Z,57.24
2023-02-02T06:06:15.033Z,57.06
2023-02-02T06:08:43.286Z,57.88
2023-02-02T06:11:16.355Z,58.25
2023-02-02T06:13:46.104Z,57.43
2023-02-02T06:16:14.988Z,57.37
2023-02-02T06:18:42.900Z,57.58
2023-02-02T06:21:12.460Z,57.56
2023-02-02T06:23:46.079Z,58.58
2023-02-02T06:26:18.431Z,58.89
2023-02-02T06:28:52.559Z,58.60
2023-02-02T06:31:24.171Z,58.41
2023-02-02T06:33:58.266Z,59.38
2023-02-02T06:36:27.991Z,58.67
2023-02-02T06:38:58.402Z,58.18
2023-02-02T06:41:26.927Z,58.67
2023-02-02T06:43:54.798Z,59.62
2023-02-02T06:46:24.985Z,59.86
2023-02-02T06:48:53.207Z,59.49
2023-02-02T06:51:21.341Z,59.64
2023-02-02T06:53:52.549Z,59.27
2023-02-02T06:56:23.209Z,59.43
2023-02-02T06:58:52.303Z,59.36
2023-02-02T07:01:20.886Z,59.78
2023-02-02T07:03:52.467Z,59.46
2023-02-02T07:06:25.593Z,60.15
2023-02-02T07:09:02.007Z,59.77
2023-02-02T07:11:41.694Z,59.42
2023-02-02T07:14:12.641Z,60.60
2023-02-02T07:16:43.781Z,60.34
2023-02-02T07:19:11.764Z,61.49
2023-02-02T07:21:40.404Z,62.00
2023-02-02T07:24:09.866Z,60.97
2023-02-02T07:26:38.320Z,62.02
2023-02-02T07:29:06.907Z,61.38
2023-02-02T07:31:36.821Z,61.66
2023-02-02T07:34:06.624Z,61.94
2023-02-02T07:36:34.876Z,61.54
2023-02-02T07:39:05.313Z,62.06
2023-02-02T07:41:37.174Z,62.23
2023-02-02T07:44:06.172Z,61.71
2023-02-02T07:46:34.589Z,62.62
2023-02-02T07:49:03.454Z,61.18
2023-02-02T07:51:32.419Z,62.12
2023-02-02T07:54:00.396Z,61.55
2023-02-02T07:56:28.873Z,60.80
2023-02-02T07:58:58.221Z,61.53
2023-02-02T08:01:28.349Z,61.84
2023-02-02T08:04:00.653Z,61.41
2023-02-02T08:06:35.325Z,62.16
2023-02-02T08:09:10.998Z,62.43
2023-02-02T08:11:40.000Z,63.28
2023-02-02T08:14:08.538Z,62.84
2023-02-02T08:16:37.260Z,63.78
2023-02-02T08:19:05.646Z,65.13
2023-02-02T08:21:37.755Z,64.56
2023-02-02T08:24:08.807Z,64.84
2023-02-02T08:26:38.947Z,63.86
2023-02-02T08:29:09.158Z,64.53
2023-02-02T08:31:42.129Z,65.13
2023-02-02T08:34:11.501Z,66.95
2023-02-02T08:36:41.491Z,65.37
2023-02-02T08:39:13.613Z,65.04
2023-02-02T08:41:45.638Z,66.09
2023-02-02T08:44:16.421Z,66.04
2023-02-02T08:46:44.924Z,65.75
2023-02-02T08:49:13.678Z,65.85
2023-02-02T08:51:42.309Z,65.36
2023-02-02T08:54:10.116Z,65.92
2023-02-02T08:56:38.545Z,65.80
2023-02-02T08:59:07.011Z,65.12
2023-02-02T09:01:36.109Z,65.85
2023-02-02T09:04:07.603Z,65.97
2023-02-02T09:06:38.644Z,65.25
2023-02-02T09:09:10.195Z,66.62
2023-02-02T09:11:39.196Z,65.83
2023-02-02T09:14:07.440Z,64.92
2023-02-02T09:16:36.463Z,66.37
2023-02-02T09:19:05.259Z,65.98
2023-02-02T09:21:37.660Z,66.87
2023-02-02T09:24:12.397Z,67.62
2023-02-02T09:26:41.581Z,67.96
2023-02-02T09:29:13.368Z,68.50
2023-02-02T09:31:43.039Z,68.49
2023-02-02T09:34:13.072Z,67.75
2023-02-02T09:36:42.366Z,67.39
2023-02-02T09:39:13.773Z,68.22
2023-02-02T09:41:42.055Z,66.88
2023-02-02T09:44:25.276Z,66.58
2023-02-02T09:47:00.908Z,66.02
2023-02-02T09:49:35.490Z,65.60
2023-02-02T09:52:14.471Z,65.70
2023-02-02T09:54:52.019Z,66.91
2023-02-02T09:57:25.678Z,65.72
2023-02-02T09:59:55.025Z,65.50
2023-02-02T10:02:26.954Z,65.78
2023-02-02T10:05:01.563Z,64.60
2023-02-02T10:07:39.813Z,65.03
2023-02-02T10:10:33.051Z,65.08
2023-02-02T10:13:23.126Z,65.26
2023-02-02T10:16:01.617Z,63.78
2023-02-02T10:18:59.901Z,65.02
2023-02-02T10:21:33.760Z,67.46
2023-02-02T10:24:03.844Z,67.59
2023-02-02T10:26:46.496Z,68.08
2023-02-02T10:29:47.006Z,67.80
2023-02-02T10:32:27.727Z,68.68
2023-02-02T10:35:13.550Z,67.90
2023-02-02T10:38:20.239Z,67.69
2023-02-02T10:41:24.404Z,68.81
2023-02-02T10:44:16.886Z,69.36
2023-02-02T10:46:54.468Z,68.76
2023-02-02T10:49:26.672Z,67.82
2023-02-02T10:52:24.137Z,67.30
2023-02-02T10:55:10.430Z,67.79
2023-02-02T10:57:57.390Z,66.89
2023-02-02T11:00:42.613Z,66.67
2023-02-02T11:03:13.811Z,67.59
2023-02-02T11:06:00.500Z,67.33
2023-02-02T11:08:39.578Z,66.91
2023-02-02T11:11:19.273Z,67.28
2023-02-02T11:14:09.905Z,66.19
2023-02-02T11:16:43.717Z,65.54
2023-02-02T11:19:18.395Z,66.79
2023-02-02T11:21:49.033Z,65.40
2023-02-02T11:24:29.063Z,65.26
2023-02-02T11:27:04.864Z,64.25
2023-02-02T11:29:33.588Z,65.79
2023-02-02T11:32:28.295Z,64.22
2023-02-02T11:35:02.979Z,64.24
2023-02-02T11:37:36.664Z,62.67
2023-02-02T11:40:24.897Z,63.47
2023-02-02T11:42:53.555Z,63.26
2023-02-02T11:45:37.429Z,64.06
2023-02-02T11:48:17.174Z,64.13
2023-02-02T11:50:56.960Z,62.07
2023-02-02T11:53:48.731Z,62.55
2023-02-02T11:56:24.220Z,62.67
2023-02-02T11:58:59.423Z,62.93
2023-02-02T12:01:32.505Z,64.28
2023-02-02T12:04:22.172Z,64.07
2023-02-02T12:06:50.633Z,64.07
2023-02-02T12:09:23.118Z,63.10
2023-02-02T12:12:24.119Z,63.34
2023-02-02T12:15:28.884Z,63.00
2023-02-02T12:18:32.265Z,62.58
2023-02-02T12:21:06.793Z,61.56
2023-02-02T12:23:52.027Z,61.34
2023-02-02T12:26:29.123Z,61.83
2023-02-02T12:29:15.692Z,61.60
2023-02-02T12:32:27.261Z,59.62
2023-02-02T12:35:28.596Z,60.87
2023-02-02T12:38:18.981Z,59.93
2023-02-02T12:41:14.818Z,61.25
2023-02-02T12:43:47.684Z,59.22
2023-02-02T12:46:45.114Z,59.90
2023-02-02T12:49:34.587Z,58.44
2023-02-02T12:52:38.185Z,59.45
2023-02-02T12:55:17.697Z,59.89
2023-02-02T12:57:48.686Z,57.88
2023-02-02T13:00:38.761Z,58.13
2023-02-02T13:03:23.166Z,57.79
2023-02-02T13:06:06.233Z,58.00
2023-02-02T13:08:40.264Z,57.66
2023-02-02T13:11:30.289Z,57.08
2023-02-02T13:14:20.239Z,57.25
2023-02-02T13:16:54.848Z,57.67
2023-02-02T13:19:47.473Z,55.47
2023-02-02T13:22:47.418Z,57.33
2023-02-02T13:25:49.101Z,57.58
2023-02-02T13:28:46.407Z,57.84
2023-02-02T13:31:24.438Z,58.39
2023-02-02T13:34:29.438Z,56.29
2023-02-02T13:37:05.106Z,56.92
2023-02-02T13:39:38.859Z,56.96
2023-02-02T13:42:17.638Z,56.53
2023-02-02T13:44:54.995Z,55.94
2023-02-02T13:47:50.123Z,56.17
2023-02-02T13:50:22.383Z,56.85
2023-02-02T13:53:20.046Z,55.77
2023-02-02T13:56:06.572Z,54.08
2023-02-02T13:58:42.585Z,55.54
2023-02-02T14:01:13.458Z,54.06
2023-02-02T14:03:45.076Z,54.27
2023-02-02T14:06:19.715Z,55.23
2023-02-02T14:08:53.033Z,54.98
2023-02-02T14:11:29.192Z,54.68
2023-02-02T14:14:37.264Z,55.19
2023-02-02T14:17:34.347Z,55.07
2023-02-02T14:20:03.735Z,54.35
2023-02-02T14:22:48.259Z,54.56
2023-02-02T14:25:53.514Z,54.65
2023-02-02T14:28:45.573Z,53.97
2023-02-02T14:31:27.523Z,53.45
2023-02-02T14:34:27.698Z,53.26
2023-02-02T14:37:17.739Z,54.50
2023-02-02T14:40:07.986Z,52.58
2023-02-02T14:43:10.449Z,53.92
2023-02-02T14:45:48.932Z,53.87
2023-02-02T14:48:22.829Z,53.75
2023-02-02T14:50:56.411Z,54.36
2023-02-02T14:53:36.655Z,53.17
2023-02-02T14:56:11.647Z,53.21
2023-02-02T14:58:48.593Z,52.76
2023-02-02T15:01:25.361Z,53.00
2023-02-02T15:04:21.871Z,56.10
2023-02-02T15:06:53.213Z,55.40
2023-02-02T15:09:28.623Z,53.83
2023-02-02T15:12:02.245Z,53.99
2023-02-02T15:14:53.527Z,53.28
2023-02-02T15:17:40.234Z,52.22
2023-02-02T15:20:29.870Z,53.02
2023-02-02T15:23:07.392Z,53.02
2023-02-02T15:25:44.675Z,53.70
2023-02-02T15:28:35.949Z,53.08
2023-02-02T15:31:23.074Z,53.24
2023-02-02T15:33:55.530Z,53.31
2023-02-02T15:36:27.494Z,53.52
2023-02-02T15:39:04.952Z,53.51
2023-02-02T15:41:44.168Z,53.48
2023-02-02T15:44:28.086Z,53.20
2023-02-02T15:46:59.381Z,52.90
2023-02-02T15:49:35.425Z,53.11
2023-02-02T15:52:14.108Z,53.40
2023-02-02T15:54:53.173Z,53.24
2023-02-02T15:57:24.114Z,53.85
2023-02-02T15:59:52.139Z,53.40
2023-02-02T16:02:28.291Z,52.73
2023-02-02T16:04:56.306Z,53.00
2023-02-02T16:07:34.180Z,52.93
2023-02-02T16:10:07.149Z,51.86
2023-02-02T16:12:35.968Z,52.52
2023-02-02T16:15:04.112Z,52.31
2023-02-02T16:17:35.729Z,52.38
2023-02-02T16:20:16.455Z,51.94
2023-02-02T16:22:47.129Z,50.79
2023-02-02T16:25:19.839Z,51.12
2023-02-02T16:27:49.858Z,51.19
2023-02-02T16:30:46.673Z,50.55
2023-02-02T16:33:33.935Z,49.79
2023-02-02T16:36:25.127Z,49.91
2023-02-02T16:39:01.893Z,49.97
2023-02-02T16:41:33.444Z,50.56
2023-02-02T16:44:30.975Z,50.06
2023-02-02T16:47:00.634Z,50.68
2023-02-02T16:49:31.352Z,50.18
2023-02-02T16:52:10.225Z,49.19
2023-02-02T16:54:42.898Z,49.63
2023-02-02T16:57:18.678Z,49.75
2023-02-02T16:59:57.436Z,49.58
2023-02-02T17:02:31.670Z,49.55
2023-02-02T17:05:08.140Z,49.93
2023-02-02T17:07:38.470Z,49.77
2023-02-02T17:10:24.099Z,50.11
2023-02-02T17:12:52.592Z,49.81
2023-02-02T17:15:36.319Z,49.00
2023-02-02T17:18:05.678Z,49.02
2023-02-02T17:20:34.840Z,49.57
2023-02-02T17:23:10.127Z,49.98
2023-02-02T17:25:42.385Z,49.72
2023-02-02T17:28:17.452Z,49.85
2023-02-02T17:30:48.801Z,50.10
2023-02-02T17:33:18.503Z,49.13
2023-02-02T17:35:54.954Z,48.94
2023-02-02T17:38:25.148Z,48.87
2023-02-02T17:40:54.199Z,47.68
2023-02-02T17:43:22.508Z,48.71
2023-02-02T17:45:50.929Z,47.30
2023-02-02T17:48:20.819Z,46.83
2023-02-02T17:50:49.083Z,47.25
2023-02-02T17:53:20.593Z,47.99
2023-02-02T17:55:50.233Z,47.37
2023-02-02T17:58:18.845Z,47.54
2023-02-02T18:00:52.530Z,46.84
2023-02-02T18:03:28.433Z,45.96
2023-02-02T18:06:05.930Z,46.39
2023-02-02T18:08:34.399Z,45.99
2023-02-02T18:11:03.209Z,45.54
2023-02-02T18:13:32.995Z,46.15
2023-02-02T18:16:01.411Z,46.00
2023-02-02T18:18:31.190Z,46.32
2023-02-02T18:21:00.845Z,45.96
2023-02-02T18:23:28.877Z,46.38
2023-02-02T18:28:42.308Z,47.08
2023-02-02T18:31:16.417Z,45.85
2023-02-02T18:33:44.666Z,46.43
2023-02-02T18:36:19.119Z,46.00
2023-02-02T18:38:49.686Z,46.03
2023-02-02T18:41:19.906Z,46.12
2023-02-02T18:44:06.634Z,45.48
2023-02-02T18:46:36.585Z,45.73
2023-02-02T18:49:04.379Z,45.64
2023-02-02T18:51:32.993Z,45.77
2023-02-02T18:54:00.816Z,45.01
2023-02-02T18:56:30.396Z,45.38
2023-02-02T18:58:59.720Z,45.20
2023-02-02T19:01:31.279Z,44.92
2023-02-02T19:04:04.521Z,45.15
2023-02-02T19:06:57.172Z,45.00
2023-02-02T19:09:30.733Z,45.10
2023-02-02T19:12:05.576Z,44.40
2023-02-02T19:14:42.749Z,44.59
2023-02-02T19:17:25.698Z,44.46
2023-02-02T19:20:27.011Z,44.74
2023-02-02T19:23:18.637Z,45.37
2023-02-02T19:25:58.307Z,44.51
2023-02-02T19:28:36.784Z,43.71
2023-02-02T19:31:16.427Z,44.54
2023-02-02T19:33:51.228Z,45.52
2023-02-02T19:36:26.725Z,44.85
2023-02-02T19:39:12.410Z,44.76
2023-02-02T19:41:44.342Z,45.01
2023-02-02T19:44:25.215Z,44.90
2023-02-02T19:46:59.262Z,44.78
2023-02-02T19:49:39.161Z,45.08
2023-02-02T19:55:51.904Z,43.51
2023-02-02T19:58:36.045Z,43.55
2023-02-02T20:01:20.399Z,42.83
2023-02-02T20:03:54.287Z,44.46
2023-02-02T20:06:37.252Z,43.84
2023-02-02T20:09:28.433Z,43.67
2023-02-02T20:12:27.650Z,44.85
2023-02-02T20:15:01.419Z,44.15
2023-02-02T20:17:39.198Z,44.46
2023-02-02T20:20:51.888Z,43.46
2023-02-02T20:23:45.515Z,43.74
2023-02-02T20:29:29.270Z,44.21
2023-02-02T20:32:16.599Z,43.90
2023-02-02T20:34:48.496Z,44.37
2023-02-02T20:37:33.669Z,43.99
2023-02-02T20:40:27.918Z,43.92
2023-02-02T20:43:00.877Z,43.11
2023-02-02T20:45:34.346Z,42.52
2023-02-02T20:48:07.110Z,43.33
2023-02-02T20:50:39.053Z,44.67
2023-02-02T20:53:11.753Z,43.61
2023-02-02T20:55:49.905Z,44.29
2023-02-02T20:58:25.935Z,44.54
2023-02-02T21:01:13.203Z,44.78
2023-02-02T21:03:45.839Z,45.23
2023-02-02T21:06:23.852Z,45.06
2023-02-02T21:08:56.528Z,43.43
2023-02-02T21:11:31.119Z,44.44
2023-02-02T21:14:06.372Z,45.32
2023-02-02T21:16:40.111Z,44.92
2023-02-02T21:19:15.278Z,45.36
2023-02-02T21:21:47.556Z,44.68
2023-02-02T21:24:19.997Z,45.66
2023-02-02T21:26:52.811Z,44.21
2023-02-02T21:29:27.825Z,44.91
2023-02-02T21:32:03.614Z,45.50
2023-02-02T21:34:38.253Z,44.81
2023-02-02T21:37:15.933Z,46.27
2023-02-02T21:39:50.742Z,46.45
2023-02-02T21:42:24.478Z,46.80
2023-02-02T21:45:04.484Z,46.50
2023-02-02T21:47:42.197Z,46.69
2023-02-02T21:50:20.394Z,47.25
2023-02-02T21:52:51.896Z,47.58
2023-02-02T21:55:37.995Z,47.15
2023-02-02T21:58:35.357Z,47.21
2023-02-02T22:01:16.986Z,47.89
2023-02-02T22:03:46.970Z,48.74
2023-02-02T22:06:31.763Z,48.45
2023-02-02T22:09:16.177Z,49.19
2023-02-02T22:12:02.300Z,48.76
2023-02-02T22:14:41.534Z,50.03
2023-02-02T22:17:32.616Z,50.67
2023-02-02T22:20:33.261Z,49.91
2023-02-02T22:23:02.666Z,49.91
2023-02-02T22:25:37.007Z,50.62
2023-02-02T22:28:22.193Z,49.59
2023-02-02T22:30:52.140Z,49.93
2023-02-02T22:33:20.234Z,51.05
2023-02-02T22:35:48.620Z,51.57
2023-02-02T22:38:22.642Z,51.40
2023-02-02T22:40:52.455Z,52.01
2023-02-02T22:43:21.330Z,51.52
2023-02-02T22:45:49.764Z,50.66
2023-02-02T22:48:19.103Z,50.53
2023-02-02T22:50:49.542Z,50.16
2023-02-02T22:53:17.510Z,51.02
2023-02-02T22:55:46.057Z,51.60
2023-02-02T22:58:14.574Z,50.25
2023-02-02T23:00:42.688Z,50.79
2023-02-02T23:03:11.086Z,50.34
2023-02-02T23:05:39.235Z,50.43
2023-02-02T23:08:07.232Z,51.19
2023-02-02T23:10:36.135Z,50.74
2023-02-02T23:13:06.153Z,50.22
2023-02-02T23:15:35.612Z,50.04
2023-02-02T23:18:04.098Z,51.03
2023-02-02T23:20:32.645Z,51.64
2023-02-02T23:23:00.405Z,50.98
2023-02-02T23:25:28.726Z,52.24
2023-02-02T23:27:56.589Z,51.69
2023-02-02T23:30:25.246Z,51.86
2023-02-02T23:32:53.430Z,51.48
2023-02-02T23:35:21.716Z,51.55
2023-02-02T23:37:49.489Z,51.57
2023-02-02T23:40:18.237Z,51.03
2023-02-02T23:42:46.066Z,51.47
2023-02-02T23:45:16.200Z,50.93
2023-02-02T23:47:44.802Z,51.33
2023-02-02T23:50:13.486Z,51.38
2023-02-02T23:52:41.462Z,51.20
2023-02-02T23:55:12.815Z,51.93
2023-02-02T23:57:41.044Z,51.28
